Time;durP1;ratioP1;P1;durP2;ratioP2;P2;SDS_P1;SDS_P2;PMS_P1;PMS_P2;Temp;Humidity;BMP_temperature;BMP_pressure;BME280_temperature;BME280_humidity;BME280_pressure;Samples;Min_cycle;Max_cycle;Signal;HPM_P1;HPM_P2
2022/08/16 00:02:58;;;;;;;8.80;7.40;;;25.70;70.70;;;;;;221210;1262;22528;-58
2022/08/16 00:08:06;;;;;;;10.10;7.70;;;25.70;70.50;;;;;;221119;1262;24296;-58
2022/08/16 00:13:11;;;;;;;9.40;7.90;;;25.70;70.50;;;;;;221346;1262;22538;-59
2022/08/16 00:18:16;;;;;;;10.60;7.40;;;25.70;70.20;;;;;;221246;1265;24243;-61
2022/08/16 00:23:19;;;;;;;9.80;7.60;;;25.70;70.50;;;;;;221144;1262;22527;-59
2022/08/16 00:28:36;;;;;;;8.60;7.50;;;25.70;70.40;;;;;;221064;1265;24399;-59
2022/08/16 00:33:39;;;;;;;9.70;7.50;;;25.70;70.40;;;;;;220919;1265;24449;-58
2022/08/16 00:38:54;;;;;;;10.40;7.50;;;25.70;70.50;;;;;;221099;1262;24227;-60
2022/08/16 00:44:01;;;;;;;8.00;7.20;;;25.70;70.60;;;;;;221304;1263;22551;-60
2022/08/16 00:49:10;;;;;;;7.70;6.90;;;25.70;70.50;;;;;;221069;1265;22538;-59
2022/08/16 00:54:23;;;;;;;8.90;7.20;;;25.70;70.40;;;;;;221140;1262;24404;-60
2022/08/16 00:59:29;;;;;;;9.50;7.20;;;25.70;70.10;;;;;;220912;1265;22613;-59
2022/08/16 01:04:34;;;;;;;10.90;7.50;;;25.70;70.00;;;;;;221279;1262;22614;-56
2022/08/16 01:09:39;;;;;;;7.80;7.00;;;25.70;70.30;;;;;;221277;1265;22532;-59
2022/08/16 01:14:53;;;;;;;10.90;7.60;;;25.70;70.80;;;;;;221207;1262;22546;-60
2022/08/16 01:20:00;;;;;;;10.40;7.90;;;25.70;69.90;;;;;;221096;1265;25484;-59
2022/08/16 01:25:10;;;;;;;8.60;7.60;;;25.70;70.50;;;;;;221094;1265;22538;-61
2022/08/16 01:30:31;;;;;;;9.20;6.90;;;25.70;70.20;;;;;;220989;1265;22531;-60
2022/08/16 01:35:41;;;;;;;9.60;7.40;;;25.70;70.10;;;;;;221083;1266;22563;-60
2022/08/16 01:40:45;;;;;;;9.60;7.40;;;25.70;69.50;;;;;;221129;1265;23974;-58
2022/08/16 01:45:52;;;;;;;10.80;7.10;;;25.70;69.90;;;;;;221291;1262;22552;-59
2022/08/16 01:51:01;;;;;;;13.70;7.70;;;25.70;69.60;;;;;;221213;1263;22572;-59
2022/08/16 01:56:18;;;;;;;8.80;6.90;;;25.60;69.40;;;;;;221152;1262;22570;-59
2022/08/16 02:01:28;;;;;;;8.70;7.70;;;25.70;69.50;;;;;;221161;1262;22669;-59
2022/08/16 02:06:34;;;;;;;9.80;6.80;;;25.70;69.40;;;;;;221474;1262;24205;-60
2022/08/16 02:11:43;;;;;;;7.80;5.90;;;25.70;69.10;;;;;;221230;1262;25219;-61
2022/08/16 02:16:57;;;;;;;11.20;7.20;;;25.70;69.00;;;;;;221080;1262;22528;-59
2022/08/16 02:22:03;;;;;;;8.40;6.70;;;25.60;68.90;;;;;;221377;1265;25244;-59
2022/08/16 02:27:25;;;;;;;8.10;6.60;;;25.60;68.90;;;;;;221067;1262;24103;-59
2022/08/16 02:32:28;;;;;;;7.70;6.80;;;25.60;68.90;;;;;;221414;1265;25464;-59
2022/08/16 02:37:53;;;;;;;9.60;7.00;;;25.60;69.20;;;;;;221218;1265;25258;-58
2022/08/16 02:42:59;;;;;;;10.10;6.60;;;25.60;68.70;;;;;;221404;1262;22547;-60
2022/08/16 02:48:04;;;;;;;8.70;6.50;;;25.60;68.80;;;;;;221204;1265;23941;-60
2022/08/16 02:53:27;;;;;;;9.00;6.50;;;25.60;68.40;;;;;;221126;1264;22557;-59
2022/08/16 02:58:32;;;;;;;7.20;6.30;;;25.60;68.70;;;;;;221332;1265;24471;-60
2022/08/16 03:03:37;;;;;;;13.20;6.90;;;25.60;68.60;;;;;;221454;1265;23914;-60
2022/08/16 03:08:59;;;;;;;8.70;6.40;;;25.60;68.80;;;;;;221193;1262;25351;-59
2022/08/16 03:14:04;;;;;;;7.10;6.00;;;25.50;68.40;;;;;;221146;1262;22570;-60
2022/08/16 03:19:10;;;;;;;8.30;6.00;;;25.60;68.00;;;;;;220938;1265;22707;-59
2022/08/16 03:24:14;;;;;;;8.90;6.30;;;25.60;68.10;;;;;;221113;1262;22623;-60
2022/08/16 03:29:32;;;;;;;9.20;6.10;;;25.50;67.70;;;;;;221407;1262;25324;-59
2022/08/16 03:34:36;;;;;;;27.80;8.50;;;25.60;68.20;;;;;;221576;1262;25454;-60
2022/08/16 03:39:40;;;;;;;9.10;6.80;;;25.60;68.20;;;;;;221526;1265;26609;-58
2022/08/16 03:44:46;;;;;;;8.10;6.30;;;25.50;67.60;;;;;;220954;1265;25283;-59
2022/08/16 03:49:52;;;;;;;10.30;6.50;;;25.50;67.60;;;;;;221352;1265;22528;-60
2022/08/16 03:54:56;;;;;;;12.50;6.10;;;25.50;67.10;;;;;;221059;1261;24437;-61
2022/08/16 04:00:11;;;;;;;7.40;6.20;;;25.50;66.80;;;;;;221009;1262;26465;-60
2022/08/16 04:05:40;;;;;;;11.50;6.80;;;25.50;66.90;;;;;;221307;1261;23897;-61
2022/08/16 04:10:47;;;;;;;8.00;6.00;;;25.50;67.90;;;;;;221078;1265;22538;-60
2022/08/16 04:15:54;;;;;;;7.40;6.20;;;25.50;67.20;;;;;;220973;1265;24398;-61
2022/08/16 04:20:58;;;;;;;9.00;6.40;;;25.50;67.10;;;;;;220997;1264;26625;-60
2022/08/16 04:26:02;;;;;;;9.90;6.40;;;25.50;66.80;;;;;;221014;1265;22556;-58
2022/08/16 04:31:07;;;;;;;9.10;7.10;;;25.40;66.90;;;;;;220874;1265;22776;-57
2022/08/16 04:36:14;;;;;;;6.60;5.70;;;25.40;67.10;;;;;;220975;1265;22558;-58
2022/08/16 04:41:22;;;;;;;13.00;6.80;;;25.40;66.70;;;;;;221036;1265;24216;-60
2022/08/16 04:46:40;;;;;;;11.30;7.10;;;25.40;67.20;;;;;;220964;1265;25326;-59
2022/08/16 04:52:04;;;;;;;7.90;6.30;;;25.40;67.40;;;;;;221042;1265;22782;-60
2022/08/16 04:57:27;;;;;;;8.00;6.70;;;25.40;67.40;;;;;;220668;1265;1193247;-58
2022/08/16 05:02:32;;;;;;;7.90;7.10;;;25.40;67.30;;;;;;221515;1262;25246;-59
2022/08/16 05:07:45;;;;;;;8.70;6.10;;;25.40;67.40;;;;;;221148;1262;24293;-59
2022/08/16 05:13:05;;;;;;;8.80;6.60;;;25.40;67.60;;;;;;220924;1262;22538;-59
2022/08/16 05:18:11;;;;;;;7.90;6.30;;;25.40;67.50;;;;;;221040;1265;24212;-60
2022/08/16 05:23:28;;;;;;;9.10;6.60;;;25.40;67.50;;;;;;221478;1264;24227;-59
2022/08/16 05:28:34;;;;;;;8.10;6.50;;;25.50;68.00;;;;;;220982;1263;23357;-60
2022/08/16 05:33:39;;;;;;;9.30;6.40;;;25.50;67.80;;;;;;220537;1265;22540;-59
2022/08/16 05:38:44;;;;;;;7.30;6.60;;;25.40;67.70;;;;;;220991;1265;25337;-58
2022/08/16 05:43:48;;;;;;;10.40;6.90;;;25.40;67.80;;;;;;220675;1265;22587;-60
2022/08/16 05:48:58;;;;;;;10.70;6.80;;;25.40;67.90;;;;;;220995;1264;22552;-59
2022/08/16 05:54:13;;;;;;;12.10;6.60;;;25.40;68.20;;;;;;220955;1262;24284;-58
2022/08/16 05:59:17;;;;;;;10.90;6.60;;;25.40;68.70;;;;;;221760;1262;25314;-60
2022/08/16 06:04:26;;;;;;;12.80;7.20;;;25.40;68.90;;;;;;221108;1265;24205;-61
2022/08/16 06:09:41;;;;;;;18.60;7.40;;;25.50;68.90;;;;;;221033;1265;24280;-61
2022/08/16 06:14:50;;;;;;;21.70;8.40;;;25.50;69.30;;;;;;220711;1265;23735;-57
2022/08/16 06:19:57;;;;;;;12.50;6.50;;;25.60;69.60;;;;;;221101;1265;22550;-60
2022/08/16 06:24:59;;;;;;;13.00;7.20;;;25.70;69.40;;;;;;221425;1262;23641;-59
2022/08/16 06:30:02;;;;;;;15.70;6.10;;;25.70;69.70;;;;;;221342;1265;22563;-60
2022/08/16 06:35:07;;;;;;;13.40;6.80;;;25.70;69.40;;;;;;221335;1265;24201;-58
2022/08/16 06:40:10;;;;;;;12.00;6.50;;;25.70;69.20;;;;;;221376;1262;22531;-59
2022/08/16 06:45:22;;;;;;;12.70;6.80;;;25.70;69.00;;;;;;220928;1262;24282;-59
2022/08/16 06:50:35;;;;;;;11.50;6.70;;;25.80;69.00;;;;;;221562;1261;24314;-60
2022/08/16 06:55:41;;;;;;;11.80;6.60;;;25.90;68.90;;;;;;221002;1261;24204;-58
2022/08/16 07:00:47;;;;;;;9.20;6.30;;;25.90;68.90;;;;;;228480;1267;22510;-56
2022/08/16 07:05:51;;;;;;;12.10;6.50;;;25.90;68.40;;;;;;226300;1263;22551;-56
2022/08/16 07:11:00;;;;;;;11.90;7.00;;;25.90;68.20;;;;;;222104;1265;22531;-60
2022/08/16 07:16:13;;;;;;;8.40;6.40;;;25.90;68.00;;;;;;220941;1262;25250;-59
2022/08/16 07:21:21;;;;;;;11.20;7.60;;;26.00;67.90;;;;;;221285;1265;23900;-60
2022/08/16 07:26:24;;;;;;;9.40;7.20;;;26.00;67.90;;;;;;221403;1263;25342;-63
2022/08/16 07:31:29;;;;;;;9.40;6.60;;;26.00;67.10;;;;;;221154;1265;22647;-59
2022/08/16 07:36:41;;;;;;;9.00;6.70;;;26.00;67.40;;;;;;221145;1262;23173;-60
2022/08/16 07:41:47;;;;;;;8.30;6.50;;;26.00;67.00;;;;;;221040;1265;22704;-60
2022/08/16 07:46:55;;;;;;;8.20;7.40;;;26.10;66.90;;;;;;221365;1265;23163;-60
2022/08/16 07:51:59;;;;;;;10.40;7.10;;;26.10;66.80;;;;;;221106;1262;25548;-60
2022/08/16 07:57:03;;;;;;;7.70;6.90;;;26.10;66.80;;;;;;220941;1265;23255;-62
2022/08/16 08:02:09;;;;;;;9.70;6.90;;;26.20;66.40;;;;;;221458;1262;24291;-60
2022/08/16 08:07:15;;;;;;;7.70;6.70;;;26.20;66.40;;;;;;221257;1262;22871;-59
2022/08/16 08:12:18;;;;;;;8.50;6.70;;;26.20;66.60;;;;;;221616;1261;23557;-59
2022/08/16 08:17:40;;;;;;;8.80;6.90;;;26.30;66.30;;;;;;221720;1261;25097;-60
2022/08/16 08:22:50;;;;;;;7.80;6.60;;;26.30;66.60;;;;;;221298;1261;25243;-60
2022/08/16 08:27:59;;;;;;;9.10;7.20;;;26.30;66.20;;;;;;221376;1262;22542;-60
2022/08/16 08:33:04;;;;;;;9.90;6.80;;;26.40;66.30;;;;;;220972;1261;22554;-60
2022/08/16 08:38:15;;;;;;;7.80;7.00;;;26.40;66.10;;;;;;221451;1262;22548;-59
2022/08/16 08:43:38;;;;;;;9.00;6.40;;;26.40;66.00;;;;;;220931;1262;22675;-60
2022/08/16 08:48:50;;;;;;;9.30;7.00;;;26.60;65.90;;;;;;220957;1265;22556;-59
2022/08/16 08:54:09;;;;;;;9.50;6.80;;;26.70;65.70;;;;;;221037;1262;22538;-60
2022/08/16 08:59:16;;;;;;;8.70;7.30;;;26.70;65.90;;;;;;220977;1265;24189;-58
2022/08/16 09:04:26;;;;;;;8.20;6.50;;;26.60;65.90;;;;;;221297;1265;24073;-59
2022/08/16 09:09:31;;;;;;;8.10;6.50;;;26.60;66.30;;;;;;221028;1265;25422;-59
2022/08/16 09:14:39;;;;;;;9.40;7.40;;;26.70;66.40;;;;;;221026;1262;24190;-59
2022/08/16 09:19:57;;;;;;;8.20;7.30;;;26.80;66.00;;;;;;221063;1262;22652;-56
2022/08/16 09:25:07;;;;;;;9.80;7.80;;;26.80;66.00;;;;;;220977;1262;22672;-61
2022/08/16 09:30:16;;;;;;;9.90;7.50;;;26.90;66.00;;;;;;221358;1262;25235;-58
2022/08/16 09:35:38;;;;;;;8.90;7.50;;;26.90;66.10;;;;;;221481;1262;23971;-59
2022/08/16 09:40:46;;;;;;;9.80;7.10;;;26.90;66.20;;;;;;221308;1262;22574;-58
2022/08/16 09:45:48;;;;;;;11.10;6.70;;;26.90;65.10;;;;;;221453;1262;22534;-57
2022/08/16 09:50:59;;;;;;;8.40;7.50;;;26.50;62.30;;;;;;221274;1262;22550;-59
2022/08/16 09:56:13;;;;;;;9.30;7.50;;;26.40;62.70;;;;;;221000;1265;24415;-58
2022/08/16 10:01:19;;;;;;;7.40;6.40;;;26.40;65.00;;;;;;221047;1265;24268;-56
2022/08/16 10:06:26;;;;;;;7.80;6.50;;;26.40;65.50;;;;;;221454;1265;22597;-56
2022/08/16 10:17:16;;;;;;;;;;;26.20;64.50;;;;;;221374;1262;22537;-59
2022/08/16 10:22:18;;;;;;;7.50;6.40;;;26.10;63.90;;;;;;221289;1262;24259;-56
2022/08/16 10:27:25;;;;;;;8.80;6.50;;;26.20;61.40;;;;;;221512;1262;23934;-57
2022/08/16 10:32:47;;;;;;;9.40;7.00;;;26.30;62.60;;;;;;221538;1262;22837;-59
2022/08/16 10:37:54;;;;;;;9.40;7.30;;;26.20;63.00;;;;;;221366;1262;24511;-58
2022/08/16 10:43:01;;;;;;;7.70;6.90;;;26.20;64.80;;;;;;221543;1262;22536;-58
2022/08/16 10:48:23;;;;;;;7.90;7.10;;;26.20;64.30;;;;;;221105;1262;22528;-57
2022/08/16 10:53:36;;;;;;;9.90;7.00;;;26.10;64.00;;;;;;221386;1262;24284;-56
2022/08/16 10:58:56;;;;;;;7.00;6.10;;;26.00;62.90;;;;;;221322;1261;24187;-58
2022/08/16 11:04:30;;;;;;;8.10;6.60;;;26.00;61.10;;;;;;221429;1262;24255;-57
2022/08/16 11:09:57;;;;;;;7.90;7.00;;;26.10;60.30;;;;;;221431;1262;24421;-58
2022/08/16 11:15:22;;;;;;;6.90;6.20;;;26.10;60.90;;;;;;221743;1261;25388;-57
2022/08/16 11:20:27;;;;;;;6.60;5.90;;;26.10;61.70;;;;;;221511;1262;24287;-56
2022/08/16 11:25:50;;;;;;;7.30;6.60;;;26.10;63.10;;;;;;221262;1261;22831;-58
2022/08/16 11:31:13;;;;;;;7.50;6.50;;;26.10;64.10;;;;;;221293;1261;25378;-56
2022/08/16 11:36:22;;;;;;;7.30;6.50;;;26.00;64.10;;;;;;221577;1262;22828;-56
2022/08/16 11:41:32;;;;;;;7.20;6.40;;;26.00;63.80;;;;;;221351;1265;22551;-57
2022/08/16 11:46:35;;;;;;;7.20;6.00;;;26.00;62.40;;;;;;221514;1262;22651;-58
2022/08/16 11:51:48;;;;;;;6.80;6.10;;;26.00;61.20;;;;;;221324;1262;22547;-53
2022/08/16 11:56:51;;;;;;;7.70;7.00;;;26.10;61.10;;;;;;221092;1262;24910;-56
2022/08/16 12:02:04;;;;;;;7.00;6.30;;;26.20;63.00;;;;;;221131;1262;24488;-56
2022/08/16 12:07:27;;;;;;;6.70;6.00;;;26.10;64.00;;;;;;221117;1262;22708;-56
2022/08/16 12:12:34;;;;;;;8.30;6.70;;;26.10;63.70;;;;;;221354;1261;24256;-59
2022/08/16 12:17:42;;;;;;;7.00;6.20;;;26.00;63.20;;;;;;221526;1262;24395;-57
2022/08/16 12:22:46;;;;;;;7.60;6.10;;;26.00;61.30;;;;;;221268;1262;25330;-55
2022/08/16 12:27:51;;;;;;;6.40;5.70;;;26.00;59.60;;;;;;221579;1262;22586;-57
2022/08/16 12:32:55;;;;;;;7.00;6.30;;;26.00;60.00;;;;;;221335;1261;22691;-58
2022/08/16 12:38:03;;;;;;;6.60;6.00;;;26.10;62.00;;;;;;221462;1261;25253;-57
2022/08/16 12:43:30;;;;;;;9.30;7.10;;;26.00;63.70;;;;;;221387;1262;24379;-59
2022/08/16 12:53:56;;;;;;;7.20;5.60;;;26.00;60.90;;;;;;221382;1262;22550;-56
2022/08/16 12:59:03;;;;;;;7.90;6.90;;;26.30;60.80;;;;;;221293;1261;24354;-57
2022/08/16 13:04:07;;;;;;;7.00;6.30;;;26.50;60.20;;;;;;221542;1262;25548;-55
2022/08/16 13:09:24;;;;;;;7.30;6.30;;;26.80;60.10;;;;;;220970;1265;24420;-55
2022/08/16 13:14:34;;;;;;;9.30;6.40;;;26.90;60.30;;;;;;221360;1262;24348;-57
2022/08/16 13:19:37;;;;;;;7.20;6.40;;;26.90;60.00;;;;;;221400;1262;22556;-57
2022/08/16 13:25:00;;;;;;;9.40;7.20;;;27.00;60.10;;;;;;221530;1261;24309;-56
2022/08/16 13:30:04;;;;;;;8.70;6.30;;;27.10;60.50;;;;;;221663;1262;22564;-56
2022/08/16 13:35:26;;;;;;;8.20;7.00;;;27.10;60.50;;;;;;221621;1262;25413;-57
2022/08/16 13:40:36;;;;;;;8.40;6.90;;;27.20;60.90;;;;;;221187;1262;23946;-56
2022/08/16 13:45:39;;;;;;;7.30;6.60;;;27.20;61.00;;;;;;222677;1262;24427;-57
2022/08/16 13:50:46;;;;;;;14.00;6.70;;;27.20;60.30;;;;;;221583;1262;22617;-57
2022/08/16 13:55:58;;;;;;;8.40;6.20;;;27.30;60.40;;;;;;221023;1265;22535;-57
2022/08/16 14:01:06;;;;;;;9.90;6.50;;;27.30;60.20;;;;;;221066;1265;22710;-58
2022/08/16 14:06:13;;;;;;;9.60;6.70;;;27.30;60.20;;;;;;221640;1265;25494;-56
2022/08/16 14:11:16;;;;;;;14.60;7.40;;;27.30;60.60;;;;;;221015;1265;24065;-57
2022/08/16 14:16:19;;;;;;;10.30;7.60;;;27.40;60.80;;;;;;221497;1262;25459;-56
2022/08/16 14:21:36;;;;;;;7.60;6.30;;;27.40;60.70;;;;;;221085;1262;22570;-58
2022/08/16 14:26:55;;;;;;;13.30;7.20;;;27.40;60.70;;;;;;221131;1262;22816;-55
2022/08/16 14:31:58;;;;;;;11.70;6.40;;;27.50;60.60;;;;;;221460;1262;25390;-55
2022/08/16 14:37:04;;;;;;;13.00;7.50;;;27.20;59.20;;;;;;221436;1262;22707;-55
2022/08/16 14:42:12;;;;;;;12.40;7.70;;;27.10;62.20;;;;;;221348;1262;25300;-57
2022/08/16 14:47:17;;;;;;;10.60;6.90;;;27.00;64.10;;;;;;221342;1262;24239;-57
2022/08/16 14:52:22;;;;;;;10.10;7.00;;;26.90;64.00;;;;;;221133;1262;24191;-57
2022/08/16 14:57:49;;;;;;;9.60;6.90;;;26.80;63.20;;;;;;221462;1262;22615;-57
2022/08/16 15:03:01;;;;;;;9.30;7.00;;;26.70;62.70;;;;;;221447;1262;22551;-57
2022/08/16 15:08:16;;;;;;;9.40;6.60;;;26.60;61.50;;;;;;221555;1262;22716;-55
2022/08/16 15:13:39;;;;;;;8.60;6.60;;;26.60;60.00;;;;;;221319;1262;24226;-55
2022/08/16 15:18:43;;;;;;;8.90;6.50;;;26.60;61.00;;;;;;221084;1262;24399;-56
2022/08/16 15:23:48;;;;;;;8.90;6.20;;;26.60;61.60;;;;;;221257;1262;25392;-56
2022/08/16 15:28:57;;;;;;;10.10;6.80;;;26.50;61.90;;;;;;221088;1261;25235;-57
2022/08/16 15:34:04;;;;;;;13.00;7.40;;;26.80;61.30;;;;;;221438;1262;22556;-56
2022/08/16 15:39:06;;;;;;;7.70;6.50;;;27.00;61.30;;;;;;221358;1262;24312;-56
2022/08/16 15:44:34;;;;;;;9.20;7.30;;;27.10;61.00;;;;;;221151;1262;22551;-56
2022/08/16 15:49:55;;;;;;;10.10;6.80;;;27.20;61.10;;;;;;221005;1265;22543;-57
2022/08/16 15:55:06;;;;;;;11.80;6.40;;;27.30;61.30;;;;;;221000;1265;24256;-56
2022/08/16 16:00:32;;;;;;;11.00;7.80;;;27.30;61.60;;;;;;221193;1262;22782;-57
2022/08/16 16:05:36;;;;;;;8.20;6.60;;;27.30;62.20;;;;;;221063;1262;22691;-56
2022/08/16 16:10:40;;;;;;;10.40;6.90;;;27.40;62.00;;;;;;221288;1261;22629;-57
2022/08/16 16:15:46;;;;;;;15.00;7.00;;;27.40;65.00;;;;;;221338;1262;22528;-56
2022/08/16 16:20:54;;;;;;;49.80;10.20;;;27.50;62.50;;;;;;221242;1262;22544;-56
2022/08/16 16:25:58;;;;;;;52.00;9.90;;;27.70;62.30;;;;;;221561;1262;25301;-54
2022/08/16 16:31:09;;;;;;;;;;;27.70;62.90;;;;;;221313;1262;24360;-58
2022/08/16 16:36:16;;;;;;;20.70;7.60;;;27.70;61.60;;;;;;221238;1262;22551;-58
2022/08/16 16:41:26;;;;;;;13.40;6.20;;;27.70;60.90;;;;;;221107;1265;22531;-57
2022/08/16 16:46:35;;;;;;;19.00;7.70;;;27.80;60.70;;;;;;221021;1265;22999;-58
2022/08/16 16:51:48;;;;;;;21.70;11.80;;;27.80;60.00;;;;;;220991;1262;22542;-59
2022/08/16 16:56:53;;;;;;;24.20;10.90;;;27.80;62.50;;;;;;220442;1262;1380500;-54
2022/08/16 17:01:58;;;;;;;16.10;9.80;;;27.80;63.00;;;;;;221387;1262;22655;-57
2022/08/16 17:07:21;;;;;;;19.70;11.90;;;27.80;62.40;;;;;;221166;1262;23975;-56
2022/08/16 17:12:26;;;;;;;13.20;10.50;;;27.80;63.60;;;;;;221350;1261;22544;-58
2022/08/16 17:17:49;;;;;;;24.00;10.50;;;27.70;63.30;;;;;;221350;1262;23909;-56
2022/08/16 17:23:04;;;;;;;25.10;10.20;;;27.80;63.70;;;;;;221182;1262;24353;-57
2022/08/16 17:28:08;;;;;;;16.40;9.10;;;27.90;64.90;;;;;;221478;1262;22691;-57
2022/08/16 17:33:33;;;;;;;15.80;10.20;;;27.90;65.00;;;;;;221418;1262;22524;-57
2022/08/16 17:38:39;;;;;;;12.40;8.90;;;27.90;65.20;;;;;;221550;1262;24203;-53
2022/08/16 17:43:47;;;;;;;11.00;8.30;;;27.90;65.50;;;;;;221189;1262;23648;-58
2022/08/16 17:48:49;;;;;;;14.50;8.80;;;27.90;65.90;;;;;;221264;1262;24425;-57
2022/08/16 17:53:52;;;;;;;13.60;8.20;;;27.90;65.60;;;;;;221286;1262;23939;-55
2022/08/16 17:58:54;;;;;;;10.90;8.30;;;27.90;65.90;;;;;;221495;1265;24427;-55
2022/08/16 18:03:57;;;;;;;13.50;8.00;;;27.90;65.50;;;;;;221528;1262;25345;-55
2022/08/16 18:09:10;;;;;;;9.90;6.80;;;27.80;66.10;;;;;;221158;1262;22547;-59
2022/08/16 18:14:17;;;;;;;20.90;7.40;;;27.50;64.40;;;;;;221326;1262;22565;-57
2022/08/16 18:19:40;;;;;;;11.50;6.60;;;27.10;67.70;;;;;;220922;1265;22653;-57
2022/08/16 18:24:42;;;;;;;10.70;5.90;;;26.90;67.40;;;;;;220924;1262;23951;-58
2022/08/16 18:29:47;;;;;;;13.40;6.20;;;26.80;63.30;;;;;;221175;1262;24418;-58
2022/08/16 18:34:53;;;;;;;21.00;6.60;;;26.30;59.40;;;;;;221353;1262;25270;-58
2022/08/16 18:39:56;;;;;;;9.50;5.60;;;26.00;58.80;;;;;;221566;1262;22540;-59
2022/08/16 18:45:01;;;;;;;16.30;5.90;;;25.60;57.90;;;;;;221573;1262;22541;-58
2022/08/16 18:50:05;;;;;;;10.70;6.10;;;25.20;56.10;;;;;;221096;1265;25323;-58
2022/08/16 18:55:08;;;;;;;11.70;6.30;;;24.90;55.20;;;;;;220983;1262;22580;-60
2022/08/16 19:00:20;;;;;;;8.90;5.10;;;24.80;54.20;;;;;;220943;1265;23912;-60
2022/08/16 19:05:25;;;;;;;9.70;4.80;;;24.50;53.30;;;;;;221124;1265;22621;-55
2022/08/16 19:10:30;;;;;;;10.90;5.80;;;24.30;51.90;;;;;;220918;1265;26478;-59
2022/08/16 19:15:37;;;;;;;8.40;5.30;;;24.60;57.30;;;;;;221036;1265;25228;-60
2022/08/16 19:20:43;;;;;;;10.20;5.20;;;24.60;52.90;;;;;;221005;1265;24366;-59
2022/08/16 19:25:53;;;;;;;9.60;5.10;;;24.60;54.30;;;;;;220922;1265;22567;-60
2022/08/16 19:30:59;;;;;;;7.60;4.90;;;24.80;52.10;;;;;;221200;1265;25250;-58
2022/08/16 19:36:11;;;;;;;5.60;4.30;;;24.80;56.10;;;;;;221427;1262;23303;-60
2022/08/16 19:41:36;;;;;;;14.90;5.30;;;24.70;54.10;;;;;;221444;1262;22544;-60
2022/08/16 19:46:44;;;;;;;8.40;4.30;;;24.90;53.80;;;;;;221103;1265;25360;-60
2022/08/16 19:51:47;;;;;;;10.10;5.00;;;24.60;56.50;;;;;;221537;1265;24306;-59
2022/08/16 19:56:49;;;;;;;11.60;5.40;;;24.50;53.50;;;;;;221230;1265;22546;-61
2022/08/16 20:01:53;;;;;;;14.60;5.50;;;24.70;57.00;;;;;;221246;1263;24828;-59
2022/08/16 20:06:57;;;;;;;10.00;5.60;;;25.00;57.90;;;;;;221298;1263;24513;-59
2022/08/16 20:12:09;;;;;;;15.30;5.90;;;25.60;57.90;;;;;;221159;1262;22544;-57
2022/08/16 20:17:13;;;;;;;10.80;5.40;;;25.90;57.30;;;;;;220845;1265;22760;-60
2022/08/16 20:22:19;;;;;;;12.30;5.20;;;26.00;57.20;;;;;;221126;1264;22553;-60
2022/08/16 20:27:42;;;;;;;14.70;5.80;;;26.10;57.40;;;;;;221234;1265;25336;-61
2022/08/16 20:32:45;;;;;;;8.70;5.30;;;26.10;57.30;;;;;;221204;1265;22547;-59
2022/08/16 20:37:54;;;;;;;9.00;5.50;;;26.20;57.50;;;;;;221196;1265;22566;-57
2022/08/16 20:43:02;;;;;;;10.60;5.20;;;26.20;57.80;;;;;;221031;1265;24367;-60
2022/08/16 20:48:06;;;;;;;11.40;6.00;;;26.30;59.90;;;;;;221094;1265;22552;-60
2022/08/16 20:53:09;;;;;;;10.20;5.20;;;26.30;60.20;;;;;;221165;1265;22550;-61
2022/08/16 20:58:11;;;;;;;10.00;5.30;;;26.40;60.40;;;;;;221115;1262;25366;-61
2022/08/16 21:03:14;;;;;;;11.00;5.60;;;26.40;60.80;;;;;;220791;1265;22549;-61
2022/08/16 21:08:16;;;;;;;8.90;5.20;;;26.40;60.70;;;;;;221115;1262;25235;-60
2022/08/16 21:13:40;;;;;;;8.10;5.20;;;26.50;61.00;;;;;;220882;1265;22532;-58
2022/08/16 21:18:44;;;;;;;11.60;5.10;;;26.50;61.20;;;;;;220977;1265;22876;-61
2022/08/16 21:23:46;;;;;;;7.20;5.60;;;26.50;61.60;;;;;;221223;1265;22606;-59
2022/08/16 21:28:49;;;;;;;13.40;5.50;;;26.50;61.40;;;;;;220941;1265;22547;-59
2022/08/16 21:33:51;;;;;;;6.60;5.20;;;26.50;61.70;;;;;;221246;1265;22558;-61
2022/08/16 21:38:57;;;;;;;13.20;5.60;;;26.50;61.70;;;;;;221132;1265;22633;-59
2022/08/16 21:43:59;;;;;;;6.30;5.10;;;26.60;62.30;;;;;;221144;1265;24415;-61
2022/08/16 21:49:04;;;;;;;10.90;5.00;;;26.60;62.40;;;;;;221006;1265;25356;-61
2022/08/16 21:54:07;;;;;;;8.70;5.20;;;26.50;62.10;;;;;;221076;1265;25229;-61
2022/08/16 21:59:09;;;;;;;8.00;5.50;;;26.60;62.30;;;;;;221214;1265;22704;-62
2022/08/16 22:04:13;;;;;;;8.60;5.00;;;26.60;62.40;;;;;;221269;1265;22594;-61
2022/08/16 22:09:36;;;;;;;9.40;5.50;;;26.60;62.50;;;;;;221178;1265;22817;-61
2022/08/16 22:14:38;;;;;;;7.70;5.30;;;26.60;62.60;;;;;;221130;1267;25317;-62
2022/08/16 22:19:42;;;;;;;6.90;4.90;;;26.60;62.80;;;;;;221453;1265;24253;-63
2022/08/16 22:24:44;;;;;;;9.50;5.30;;;26.60;63.50;;;;;;221103;1265;25247;-62
2022/08/16 22:29:46;;;;;;;7.20;5.00;;;26.60;63.40;;;;;;221212;1265;22536;-62
2022/08/16 22:34:48;;;;;;;6.00;5.10;;;26.60;63.60;;;;;;220977;1265;22519;-61
2022/08/16 22:39:51;;;;;;;7.40;4.90;;;26.50;63.60;;;;;;220845;1265;25296;-59
2022/08/16 22:45:03;;;;;;;9.40;5.50;;;26.50;63.80;;;;;;221118;1265;22532;-61
2022/08/16 22:50:07;;;;;;;8.80;5.50;;;26.50;64.00;;;;;;221469;1265;26487;-60
2022/08/16 22:55:09;;;;;;;8.90;5.50;;;26.50;64.50;;;;;;221154;1265;22707;-60
2022/08/16 23:00:15;;;;;;;8.00;5.50;;;26.50;64.30;;;;;;221282;1265;22570;-62
2022/08/16 23:05:17;;;;;;;9.90;6.30;;;26.50;64.40;;;;;;221039;1265;22611;-61
2022/08/16 23:10:21;;;;;;;9.30;5.60;;;26.50;64.80;;;;;;221136;1265;22537;-62
2022/08/16 23:15:25;;;;;;;9.30;6.50;;;26.50;64.70;;;;;;221327;1265;22885;-61
2022/08/16 23:20:31;;;;;;;8.00;6.40;;;26.50;64.90;;;;;;221175;1265;22544;-60
2022/08/16 23:25:38;;;;;;;10.90;6.10;;;26.50;65.00;;;;;;220961;1265;22629;-60
2022/08/16 23:30:47;;;;;;;8.90;7.30;;;26.60;65.20;;;;;;221220;1265;22543;-62
2022/08/16 23:35:59;;;;;;;9.80;6.60;;;26.60;65.20;;;;;;221097;1265;22534;-60
2022/08/16 23:41:05;;;;;;;10.50;7.00;;;26.60;65.40;;;;;;220933;1265;22564;-61
2022/08/16 23:46:15;;;;;;;11.00;6.50;;;26.60;65.40;;;;;;221384;1265;22538;-60
2022/08/16 23:51:18;;;;;;;9.00;7.40;;;26.60;65.40;;;;;;221105;1265;22633;-61
2022/08/16 23:56:20;;;;;;;11.40;7.10;;;26.60;65.50;;;;;;220999;1265;24374;-61
